sensor_id;sensor_type;location;lat;lon;timestamp;P1;durP1;ratioP1;P2;durP2;ratioP2
69910;SDS011;63555;49.920;17.868;2023-08-21T00:01:09;13.50;;;7.83;;
69910;SDS011;63555;49.920;17.868;2023-08-21T00:06:10;11.20;;;7.28;;
69910;SDS011;63555;49.920;17.868;2023-08-21T00:11:10;12.98;;;7.22;;
69910;SDS011;63555;49.920;17.868;2023-08-21T00:16:11;12.67;;;6.90;;
69910;SDS011;63555;49.920;17.868;2023-08-21T00:21:11;11.93;;;6.90;;
69910;SDS011;63555;49.920;17.868;2023-08-21T00:26:12;10.20;;;6.90;;
69910;SDS011;63555;49.920;17.868;2023-08-21T00:31:12;10.73;;;6.55;;
69910;SDS011;63555;49.920;17.868;2023-08-21T00:36:13;10.27;;;6.63;;
69910;SDS011;63555;49.920;17.868;2023-08-21T00:41:13;12.87;;;6.70;;
69910;SDS011;63555;49.920;17.868;2023-08-21T00:46:13;11.13;;;7.90;;
69910;SDS011;63555;49.920;17.868;2023-08-21T00:51:15;12.13;;;7.33;;
69910;SDS011;63555;49.920;17.868;2023-08-21T00:56:17;11.75;;;7.20;;
69910;SDS011;63555;49.920;17.868;2023-08-21T01:01:17;12.83;;;7.07;;
69910;SDS011;63555;49.920;17.868;2023-08-21T01:06:22;11.98;;;8.10;;
69910;SDS011;63555;49.920;17.868;2023-08-21T01:16:59;11.03;;;6.80;;
69910;SDS011;63555;49.920;17.868;2023-08-21T01:22:00;13.27;;;7.32;;
69910;SDS011;63555;49.920;17.868;2023-08-21T01:27:01;10.73;;;7.00;;
69910;SDS011;63555;49.920;17.868;2023-08-21T01:32:07;10.80;;;7.00;;
69910;SDS011;63555;49.920;17.868;2023-08-21T01:37:13;13.40;;;7.57;;
69910;SDS011;63555;49.920;17.868;2023-08-21T01:42:14;13.07;;;7.68;;
69910;SDS011;63555;49.920;17.868;2023-08-21T01:47:15;12.47;;;7.20;;
69910;SDS011;63555;49.920;17.868;2023-08-21T01:52:15;12.17;;;7.43;;
69910;SDS011;63555;49.920;17.868;2023-08-21T01:57:16;12.20;;;7.27;;
69910;SDS011;63555;49.920;17.868;2023-08-21T02:02:16;12.20;;;7.30;;
69910;SDS011;63555;49.920;17.868;2023-08-21T02:07:16;11.93;;;7.00;;
69910;SDS011;63555;49.920;17.868;2023-08-21T02:12:17;14.37;;;8.30;;
69910;SDS011;63555;49.920;17.868;2023-08-21T02:17:18;12.02;;;7.32;;
69910;SDS011;63555;49.920;17.868;2023-08-21T02:22:18;11.90;;;7.30;;
69910;SDS011;63555;49.920;17.868;2023-08-21T02:27:19;12.67;;;7.33;;
69910;SDS011;63555;49.920;17.868;2023-08-21T02:32:19;11.53;;;7.33;;
69910;SDS011;63555;49.920;17.868;2023-08-21T02:37:20;14.03;;;7.90;;
69910;SDS011;63555;49.920;17.868;2023-08-21T02:42:20;14.13;;;8.00;;
69910;SDS011;63555;49.920;17.868;2023-08-21T02:47:20;13.30;;;7.13;;
69910;SDS011;63555;49.920;17.868;2023-08-21T02:52:21;16.67;;;7.73;;
69910;SDS011;63555;49.920;17.868;2023-08-21T02:57:21;10.73;;;6.90;;
69910;SDS011;63555;49.920;17.868;2023-08-21T03:02:21;11.73;;;6.57;;
69910;SDS011;63555;49.920;17.868;2023-08-21T03:07:22;12.10;;;7.63;;
69910;SDS011;63555;49.920;17.868;2023-08-21T03:12:23;12.77;;;7.83;;
69910;SDS011;63555;49.920;17.868;2023-08-21T03:17:23;12.30;;;7.78;;
69910;SDS011;63555;49.920;17.868;2023-08-21T03:22:24;17.17;;;8.85;;
69910;SDS011;63555;49.920;17.868;2023-08-21T03:27:24;12.63;;;7.73;;
69910;SDS011;63555;49.920;17.868;2023-08-21T03:32:25;15.13;;;7.30;;
69910;SDS011;63555;49.920;17.868;2023-08-21T03:37:25;13.57;;;7.10;;
69910;SDS011;63555;49.920;17.868;2023-08-21T03:42:26;11.33;;;7.73;;
69910;SDS011;63555;49.920;17.868;2023-08-21T03:47:26;13.93;;;7.83;;
69910;SDS011;63555;49.920;17.868;2023-08-21T03:52:26;12.67;;;7.33;;
69910;SDS011;63555;49.920;17.868;2023-08-21T03:57:27;14.13;;;8.13;;
69910;SDS011;63555;49.920;17.868;2023-08-21T04:02:27;11.17;;;7.23;;
69910;SDS011;63555;49.920;17.868;2023-08-21T04:07:27;13.63;;;8.30;;
69910;SDS011;63555;49.920;17.868;2023-08-21T04:12:28;12.73;;;8.70;;
69910;SDS011;63555;49.920;17.868;2023-08-21T04:17:28;14.83;;;8.67;;
69910;SDS011;63555;49.920;17.868;2023-08-21T04:22:29;12.07;;;8.00;;
69910;SDS011;63555;49.920;17.868;2023-08-21T04:27:29;14.10;;;8.80;;
69910;SDS011;63555;49.920;17.868;2023-08-21T04:32:29;16.07;;;7.93;;
69910;SDS011;63555;49.920;17.868;2023-08-21T04:37:30;12.67;;;7.23;;
69910;SDS011;63555;49.920;17.868;2023-08-21T04:42:31;10.97;;;7.77;;
69910;SDS011;63555;49.920;17.868;2023-08-21T04:47:31;12.23;;;7.57;;
69910;SDS011;63555;49.920;17.868;2023-08-21T04:52:31;13.05;;;8.27;;
69910;SDS011;63555;49.920;17.868;2023-08-21T04:57:32;14.20;;;7.90;;
69910;SDS011;63555;49.920;17.868;2023-08-21T05:02:33;10.87;;;7.30;;
69910;SDS011;63555;49.920;17.868;2023-08-21T05:07:34;11.40;;;6.90;;
69910;SDS011;63555;49.920;17.868;2023-08-21T05:12:35;12.30;;;7.45;;
69910;SDS011;63555;49.920;17.868;2023-08-21T05:17:35;10.43;;;7.00;;
69910;SDS011;63555;49.920;17.868;2023-08-21T05:22:35;12.30;;;7.30;;
69910;SDS011;63555;49.920;17.868;2023-08-21T05:27:36;13.83;;;7.73;;
69910;SDS011;63555;49.920;17.868;2023-08-21T05:32:36;12.83;;;8.30;;
69910;SDS011;63555;49.920;17.868;2023-08-21T05:37:37;13.73;;;9.27;;
69910;SDS011;63555;49.920;17.868;2023-08-21T05:42:37;15.33;;;8.50;;
69910;SDS011;63555;49.920;17.868;2023-08-21T05:47:37;13.13;;;8.83;;
69910;SDS011;63555;49.920;17.868;2023-08-21T05:52:38;11.37;;;7.93;;
69910;SDS011;63555;49.920;17.868;2023-08-21T05:57:38;14.00;;;8.80;;
69910;SDS011;63555;49.920;17.868;2023-08-21T06:02:39;14.90;;;8.57;;
69910;SDS011;63555;49.920;17.868;2023-08-21T06:07:39;16.87;;;7.60;;
69910;SDS011;63555;49.920;17.868;2023-08-21T06:12:43;13.05;;;6.43;;
69910;SDS011;63555;49.920;17.868;2023-08-21T06:17:43;12.27;;;8.53;;
69910;SDS011;63555;49.920;17.868;2023-08-21T06:22:44;9.20;;;6.63;;
69910;SDS011;63555;49.920;17.868;2023-08-21T06:27:44;9.73;;;6.30;;
69910;SDS011;63555;49.920;17.868;2023-08-21T06:32:45;8.85;;;6.05;;
69910;SDS011;63555;49.920;17.868;2023-08-21T06:37:45;8.00;;;6.17;;
69910;SDS011;63555;49.920;17.868;2023-08-21T06:42:45;12.63;;;6.70;;
69910;SDS011;63555;49.920;17.868;2023-08-21T06:47:46;8.47;;;5.87;;
69910;SDS011;63555;49.920;17.868;2023-08-21T06:52:47;10.27;;;6.60;;
69910;SDS011;63555;49.920;17.868;2023-08-21T06:57:47;9.37;;;6.57;;
69910;SDS011;63555;49.920;17.868;2023-08-21T07:02:47;9.07;;;6.37;;
69910;SDS011;63555;49.920;17.868;2023-08-21T07:07:48;9.73;;;7.20;;
69910;SDS011;63555;49.920;17.868;2023-08-21T07:12:48;10.57;;;7.30;;
69910;SDS011;63555;49.920;17.868;2023-08-21T07:17:49;9.93;;;7.60;;
69910;SDS011;63555;49.920;17.868;2023-08-21T07:22:50;10.30;;;7.07;;
69910;SDS011;63555;49.920;17.868;2023-08-21T07:27:51;10.37;;;7.90;;
69910;SDS011;63555;49.920;17.868;2023-08-21T07:32:53;13.40;;;9.07;;
69910;SDS011;63555;49.920;17.868;2023-08-21T07:37:53;12.27;;;8.33;;
69910;SDS011;63555;49.920;17.868;2023-08-21T07:42:54;15.47;;;9.33;;
69910;SDS011;63555;49.920;17.868;2023-08-21T07:47:54;11.03;;;9.07;;
69910;SDS011;63555;49.920;17.868;2023-08-21T07:52:55;10.57;;;8.83;;
69910;SDS011;63555;49.920;17.868;2023-08-21T07:57:55;11.33;;;8.73;;
69910;SDS011;63555;49.920;17.868;2023-08-21T08:02:56;12.73;;;8.87;;
69910;SDS011;63555;49.920;17.868;2023-08-21T08:07:56;13.67;;;8.30;;
69910;SDS011;63555;49.920;17.868;2023-08-21T08:12:56;12.63;;;9.70;;
69910;SDS011;63555;49.920;17.868;2023-08-21T08:17:57;11.18;;;8.60;;
69910;SDS011;63555;49.920;17.868;2023-08-21T08:22:57;11.97;;;9.00;;
69910;SDS011;63555;49.920;17.868;2023-08-21T08:27:58;12.17;;;9.40;;
69910;SDS011;63555;49.920;17.868;2023-08-21T08:32:58;10.90;;;9.20;;
69910;SDS011;63555;49.920;17.868;2023-08-21T08:37:58;12.67;;;9.33;;
69910;SDS011;63555;49.920;17.868;2023-08-21T08:42:59;11.83;;;9.83;;
69910;SDS011;63555;49.920;17.868;2023-08-21T08:48:00;12.13;;;9.67;;
69910;SDS011;63555;49.920;17.868;2023-08-21T08:53:03;12.95;;;9.25;;
69910;SDS011;63555;49.920;17.868;2023-08-21T08:58:04;13.30;;;9.13;;
69910;SDS011;63555;49.920;17.868;2023-08-21T09:03:05;14.55;;;9.82;;
69910;SDS011;63555;49.920;17.868;2023-08-21T09:13:17;10.88;;;9.23;;
69910;SDS011;63555;49.920;17.868;2023-08-21T09:18:19;12.17;;;9.70;;
69910;SDS011;63555;49.920;17.868;2023-08-21T09:23:19;13.03;;;10.10;;
69910;SDS011;63555;49.920;17.868;2023-08-21T09:28:20;10.43;;;9.17;;
69910;SDS011;63555;49.920;17.868;2023-08-21T09:33:24;11.10;;;8.80;;
69910;SDS011;63555;49.920;17.868;2023-08-21T09:38:25;9.80;;;8.60;;
69910;SDS011;63555;49.920;17.868;2023-08-21T09:43:26;11.82;;;9.18;;
69910;SDS011;63555;49.920;17.868;2023-08-21T09:48:27;10.53;;;9.00;;
69910;SDS011;63555;49.920;17.868;2023-08-21T09:53:27;11.40;;;9.10;;
69910;SDS011;63555;49.920;17.868;2023-08-21T09:58:28;11.57;;;8.80;;
69910;SDS011;63555;49.920;17.868;2023-08-21T10:03:28;11.18;;;8.73;;
69910;SDS011;63555;49.920;17.868;2023-08-21T10:08:30;10.23;;;8.63;;
69910;SDS011;63555;49.920;17.868;2023-08-21T10:13:32;12.77;;;8.75;;
69910;SDS011;63555;49.920;17.868;2023-08-21T10:18:36;10.05;;;8.00;;
69910;SDS011;63555;49.920;17.868;2023-08-21T10:23:37;11.27;;;8.07;;
69910;SDS011;63555;49.920;17.868;2023-08-21T10:28:58;13.95;;;8.98;;
69910;SDS011;63555;49.920;17.868;2023-08-21T10:34:03;11.10;;;8.30;;
69910;SDS011;63555;49.920;17.868;2023-08-21T10:44:33;12.45;;;9.23;;
69910;SDS011;63555;49.920;17.868;2023-08-21T10:49:38;19.50;;;8.80;;
69910;SDS011;63555;49.920;17.868;2023-08-21T10:54:45;14.50;;;10.10;;
69910;SDS011;63555;49.920;17.868;2023-08-21T11:04:59;14.18;;;10.43;;
69910;SDS011;63555;49.920;17.868;2023-08-21T11:10:00;12.90;;;9.60;;
69910;SDS011;63555;49.920;17.868;2023-08-21T11:15:00;12.83;;;9.93;;
69910;SDS011;63555;49.920;17.868;2023-08-21T11:20:02;12.77;;;10.93;;
69910;SDS011;63555;49.920;17.868;2023-08-21T11:25:04;11.18;;;9.43;;
69910;SDS011;63555;49.920;17.868;2023-08-21T11:30:05;11.60;;;9.83;;
69910;SDS011;63555;49.920;17.868;2023-08-21T11:35:06;11.40;;;9.50;;
69910;SDS011;63555;49.920;17.868;2023-08-21T11:40:08;15.13;;;10.60;;
69910;SDS011;63555;49.920;17.868;2023-08-21T11:45:09;12.02;;;10.55;;
69910;SDS011;63555;49.920;17.868;2023-08-21T11:50:10;14.63;;;10.23;;
69910;SDS011;63555;49.920;17.868;2023-08-21T11:55:13;12.63;;;9.53;;
69910;SDS011;63555;49.920;17.868;2023-08-21T12:00:13;11.57;;;10.37;;
69910;SDS011;63555;49.920;17.868;2023-08-21T12:05:18;11.90;;;10.33;;
69910;SDS011;63555;49.920;17.868;2023-08-21T12:10:22;13.23;;;10.13;;
69910;SDS011;63555;49.920;17.868;2023-08-21T12:15:26;13.80;;;9.77;;
69910;SDS011;63555;49.920;17.868;2023-08-21T12:20:26;11.27;;;10.07;;
69910;SDS011;63555;49.920;17.868;2023-08-21T12:25:27;12.03;;;10.63;;
69910;SDS011;63555;49.920;17.868;2023-08-21T12:30:27;11.80;;;10.60;;
69910;SDS011;63555;49.920;17.868;2023-08-21T12:35:27;15.43;;;9.97;;
69910;SDS011;63555;49.920;17.868;2023-08-21T12:40:28;12.70;;;10.20;;
69910;SDS011;63555;49.920;17.868;2023-08-21T12:45:28;13.13;;;11.63;;
69910;SDS011;63555;49.920;17.868;2023-08-21T12:50:28;12.87;;;10.47;;
69910;SDS011;63555;49.920;17.868;2023-08-21T12:55:29;14.37;;;11.03;;
69910;SDS011;63555;49.920;17.868;2023-08-21T13:00:31;12.00;;;10.73;;
69910;SDS011;63555;49.920;17.868;2023-08-21T13:05:33;12.32;;;10.55;;
69910;SDS011;63555;49.920;17.868;2023-08-21T13:10:34;15.00;;;11.80;;
69910;SDS011;63555;49.920;17.868;2023-08-21T13:15:34;19.00;;;11.97;;
69910;SDS011;63555;49.920;17.868;2023-08-21T13:20:35;16.00;;;11.03;;
69910;SDS011;63555;49.920;17.868;2023-08-21T13:25:35;17.20;;;11.73;;
69910;SDS011;63555;49.920;17.868;2023-08-21T13:30:36;15.77;;;12.17;;
69910;SDS011;63555;49.920;17.868;2023-08-21T13:35:37;14.13;;;10.83;;
69910;SDS011;63555;49.920;17.868;2023-08-21T13:40:37;14.30;;;11.00;;
69910;SDS011;63555;49.920;17.868;2023-08-21T13:45:37;14.23;;;10.77;;
69910;SDS011;63555;49.920;17.868;2023-08-21T13:50:39;17.30;;;11.30;;
69910;SDS011;63555;49.920;17.868;2023-08-21T13:55:41;13.10;;;9.57;;
69910;SDS011;63555;49.920;17.868;2023-08-21T14:00:41;11.87;;;9.63;;
69910;SDS011;63555;49.920;17.868;2023-08-21T14:05:42;16.67;;;9.93;;
69910;SDS011;63555;49.920;17.868;2023-08-21T14:10:42;12.43;;;10.13;;
69910;SDS011;63555;49.920;17.868;2023-08-21T14:15:43;13.77;;;10.00;;
69910;SDS011;63555;49.920;17.868;2023-08-21T14:20:43;15.23;;;8.63;;
69910;SDS011;63555;49.920;17.868;2023-08-21T14:25:44;13.53;;;9.13;;
69910;SDS011;63555;49.920;17.868;2023-08-21T14:30:44;11.73;;;8.80;;
69910;SDS011;63555;49.920;17.868;2023-08-21T14:35:47;11.30;;;8.23;;
69910;SDS011;63555;49.920;17.868;2023-08-21T14:40:47;14.33;;;9.33;;
69910;SDS011;63555;49.920;17.868;2023-08-21T14:45:47;12.40;;;8.50;;
69910;SDS011;63555;49.920;17.868;2023-08-21T14:50:48;11.13;;;8.70;;
69910;SDS011;63555;49.920;17.868;2023-08-21T14:55:48;10.97;;;8.23;;
69910;SDS011;63555;49.920;17.868;2023-08-21T15:00:49;10.50;;;7.85;;
69910;SDS011;63555;49.920;17.868;2023-08-21T15:05:50;9.53;;;8.30;;
69910;SDS011;63555;49.920;17.868;2023-08-21T15:10:51;12.15;;;7.88;;
69910;SDS011;63555;49.920;17.868;2023-08-21T15:15:51;11.07;;;7.80;;
69910;SDS011;63555;49.920;17.868;2023-08-21T15:20:51;13.40;;;7.93;;
69910;SDS011;63555;49.920;17.868;2023-08-21T15:25:52;10.50;;;7.30;;
69910;SDS011;63555;49.920;17.868;2023-08-21T15:30:52;11.40;;;7.70;;
69910;SDS011;63555;49.920;17.868;2023-08-21T15:35:52;11.90;;;7.47;;
69910;SDS011;63555;49.920;17.868;2023-08-21T15:40:53;12.63;;;8.10;;
69910;SDS011;63555;49.920;17.868;2023-08-21T15:45:53;11.80;;;7.40;;
69910;SDS011;63555;49.920;17.868;2023-08-21T15:50:54;8.87;;;7.23;;
69910;SDS011;63555;49.920;17.868;2023-08-21T15:55:54;9.70;;;7.67;;
69910;SDS011;63555;49.920;17.868;2023-08-21T16:00:56;9.80;;;7.60;;
69910;SDS011;63555;49.920;17.868;2023-08-21T16:05:57;13.68;;;8.18;;
69910;SDS011;63555;49.920;17.868;2023-08-21T16:10:57;9.43;;;7.83;;
69910;SDS011;63555;49.920;17.868;2023-08-21T16:15:58;11.77;;;7.50;;
69910;SDS011;63555;49.920;17.868;2023-08-21T16:20:58;11.17;;;7.80;;
69910;SDS011;63555;49.920;17.868;2023-08-21T16:25:59;11.27;;;8.40;;
69910;SDS011;63555;49.920;17.868;2023-08-21T16:30:59;12.43;;;8.40;;
69910;SDS011;63555;49.920;17.868;2023-08-21T16:35:59;14.17;;;7.13;;
69910;SDS011;63555;49.920;17.868;2023-08-21T16:41:00;11.97;;;8.10;;
69910;SDS011;63555;49.920;17.868;2023-08-21T16:46:01;14.27;;;8.03;;
69910;SDS011;63555;49.920;17.868;2023-08-21T16:51:01;12.00;;;8.50;;
69910;SDS011;63555;49.920;17.868;2023-08-21T16:56:01;11.10;;;7.47;;
69910;SDS011;63555;49.920;17.868;2023-08-21T17:01:02;10.23;;;7.95;;
69910;SDS011;63555;49.920;17.868;2023-08-21T17:06:02;10.77;;;7.67;;
69910;SDS011;63555;49.920;17.868;2023-08-21T17:11:03;13.00;;;8.37;;
69910;SDS011;63555;49.920;17.868;2023-08-21T17:16:03;10.50;;;7.27;;
69910;SDS011;63555;49.920;17.868;2023-08-21T17:21:04;9.67;;;6.63;;
69910;SDS011;63555;49.920;17.868;2023-08-21T17:26:04;13.33;;;7.50;;
69910;SDS011;63555;49.920;17.868;2023-08-21T17:31:05;10.17;;;7.30;;
69910;SDS011;63555;49.920;17.868;2023-08-21T17:36:05;10.17;;;6.60;;
69910;SDS011;63555;49.920;17.868;2023-08-21T17:41:05;13.03;;;6.97;;
69910;SDS011;63555;49.920;17.868;2023-08-21T17:46:08;9.57;;;6.82;;
69910;SDS011;63555;49.920;17.868;2023-08-21T17:51:08;12.07;;;7.17;;
69910;SDS011;63555;49.920;17.868;2023-08-21T17:56:09;12.17;;;6.97;;
69910;SDS011;63555;49.920;17.868;2023-08-21T18:01:11;11.20;;;6.85;;
69910;SDS011;63555;49.920;17.868;2023-08-21T18:06:11;10.27;;;6.33;;
69910;SDS011;63555;49.920;17.868;2023-08-21T18:11:12;12.20;;;6.80;;
69910;SDS011;63555;49.920;17.868;2023-08-21T18:16:13;12.80;;;7.80;;
69910;SDS011;63555;49.920;17.868;2023-08-21T18:21:13;12.53;;;7.53;;
69910;SDS011;63555;49.920;17.868;2023-08-21T18:26:14;14.80;;;7.10;;
69910;SDS011;63555;49.920;17.868;2023-08-21T18:31:14;14.57;;;7.63;;
69910;SDS011;63555;49.920;17.868;2023-08-21T18:36:15;12.47;;;6.97;;
69910;SDS011;63555;49.920;17.868;2023-08-21T18:41:15;9.50;;;6.67;;
69910;SDS011;63555;49.920;17.868;2023-08-21T18:46:15;12.13;;;7.07;;
69910;SDS011;63555;49.920;17.868;2023-08-21T18:51:18;16.00;;;7.20;;
69910;SDS011;63555;49.920;17.868;2023-08-21T18:56:18;12.73;;;7.13;;
69910;SDS011;63555;49.920;17.868;2023-08-21T19:01:19;14.13;;;7.90;;
69910;SDS011;63555;49.920;17.868;2023-08-21T19:06:19;11.53;;;7.70;;
69910;SDS011;63555;49.920;17.868;2023-08-21T19:11:20;10.97;;;7.73;;
69910;SDS011;63555;49.920;17.868;2023-08-21T19:16:20;11.97;;;7.93;;
69910;SDS011;63555;49.920;17.868;2023-08-21T19:21:21;14.37;;;7.87;;
69910;SDS011;63555;49.920;17.868;2023-08-21T19:26:21;10.53;;;7.27;;
69910;SDS011;63555;49.920;17.868;2023-08-21T19:31:21;11.60;;;7.60;;
69910;SDS011;63555;49.920;17.868;2023-08-21T19:36:22;11.60;;;7.50;;
69910;SDS011;63555;49.920;17.868;2023-08-21T19:41:22;11.57;;;7.77;;
69910;SDS011;63555;49.920;17.868;2023-08-21T19:46:23;11.43;;;7.43;;
69910;SDS011;63555;49.920;17.868;2023-08-21T19:51:24;10.13;;;7.03;;
69910;SDS011;63555;49.920;17.868;2023-08-21T19:56:25;11.40;;;7.80;;
69910;SDS011;63555;49.920;17.868;2023-08-21T20:01:26;11.00;;;7.35;;
69910;SDS011;63555;49.920;17.868;2023-08-21T20:06:26;12.45;;;7.97;;
69910;SDS011;63555;49.920;17.868;2023-08-21T20:11:26;15.83;;;8.77;;
69910;SDS011;63555;49.920;17.868;2023-08-21T20:16:27;12.97;;;8.13;;
69910;SDS011;63555;49.920;17.868;2023-08-21T20:21:28;21.17;;;11.20;;
69910;SDS011;63555;49.920;17.868;2023-08-21T20:26:29;11.05;;;7.60;;
69910;SDS011;63555;49.920;17.868;2023-08-21T20:31:33;12.80;;;8.43;;
69910;SDS011;63555;49.920;17.868;2023-08-21T20:36:34;11.88;;;7.93;;
69910;SDS011;63555;49.920;17.868;2023-08-21T20:41:34;14.97;;;9.57;;
69910;SDS011;63555;49.920;17.868;2023-08-21T20:46:34;11.83;;;8.23;;
69910;SDS011;63555;49.920;17.868;2023-08-21T20:51:35;14.70;;;8.57;;
69910;SDS011;63555;49.920;17.868;2023-08-21T20:56:35;14.60;;;8.17;;
69910;SDS011;63555;49.920;17.868;2023-08-21T21:01:35;12.50;;;8.67;;
69910;SDS011;63555;49.920;17.868;2023-08-21T21:06:36;15.37;;;8.57;;
69910;SDS011;63555;49.920;17.868;2023-08-21T21:11:36;12.67;;;8.33;;
69910;SDS011;63555;49.920;17.868;2023-08-21T21:16:37;14.70;;;8.60;;
69910;SDS011;63555;49.920;17.868;2023-08-21T21:21:37;11.43;;;8.60;;
69910;SDS011;63555;49.920;17.868;2023-08-21T21:26:38;12.03;;;7.90;;
69910;SDS011;63555;49.920;17.868;2023-08-21T21:31:39;15.45;;;8.73;;
69910;SDS011;63555;49.920;17.868;2023-08-21T21:36:40;14.60;;;8.33;;
69910;SDS011;63555;49.920;17.868;2023-08-21T21:41:42;14.82;;;9.40;;
69910;SDS011;63555;49.920;17.868;2023-08-21T21:46:42;14.17;;;9.40;;
69910;SDS011;63555;49.920;17.868;2023-08-21T21:51:43;14.00;;;8.73;;
69910;SDS011;63555;49.920;17.868;2023-08-21T21:56:43;13.13;;;8.87;;
69910;SDS011;63555;49.920;17.868;2023-08-21T22:01:43;16.43;;;8.50;;
69910;SDS011;63555;49.920;17.868;2023-08-21T22:06:44;14.00;;;8.63;;
69910;SDS011;63555;49.920;17.868;2023-08-21T22:11:45;14.83;;;9.33;;
69910;SDS011;63555;49.920;17.868;2023-08-21T22:16:46;14.47;;;8.90;;
69910;SDS011;63555;49.920;17.868;2023-08-21T22:21:46;14.63;;;8.77;;
69910;SDS011;63555;49.920;17.868;2023-08-21T22:26:46;15.10;;;9.95;;
69910;SDS011;63555;49.920;17.868;2023-08-21T22:31:47;16.43;;;9.50;;
69910;SDS011;63555;49.920;17.868;2023-08-21T22:36:47;15.77;;;9.10;;
69910;SDS011;63555;49.920;17.868;2023-08-21T22:41:48;14.93;;;9.53;;
69910;SDS011;63555;49.920;17.868;2023-08-21T22:46:48;14.63;;;8.93;;
69910;SDS011;63555;49.920;17.868;2023-08-21T22:51:50;13.37;;;8.33;;
69910;SDS011;63555;49.920;17.868;2023-08-21T22:56:51;12.37;;;7.87;;
69910;SDS011;63555;49.920;17.868;2023-08-21T23:01:52;13.23;;;8.30;;
69910;SDS011;63555;49.920;17.868;2023-08-21T23:06:52;13.87;;;9.17;;
69910;SDS011;63555;49.920;17.868;2023-08-21T23:11:53;14.80;;;9.07;;
69910;SDS011;63555;49.920;17.868;2023-08-21T23:16:54;14.17;;;9.20;;
69910;SDS011;63555;49.920;17.868;2023-08-21T23:21:54;12.88;;;8.43;;
69910;SDS011;63555;49.920;17.868;2023-08-21T23:26:54;13.10;;;7.87;;
69910;SDS011;63555;49.920;17.868;2023-08-21T23:31:55;13.60;;;8.73;;
69910;SDS011;63555;49.920;17.868;2023-08-21T23:36:55;13.73;;;8.67;;
69910;SDS011;63555;49.920;17.868;2023-08-21T23:41:56;14.97;;;8.97;;
69910;SDS011;63555;49.920;17.868;2023-08-21T23:46:58;15.93;;;8.85;;
69910;SDS011;63555;49.920;17.868;2023-08-21T23:51:58;18.13;;;8.97;;
69910;SDS011;63555;49.920;17.868;2023-08-21T23:56:59;12.87;;;8.57;;
